Time;durP1;ratioP1;P1;durP2;ratioP2;P2;SDS_P1;SDS_P2;PMS_P1;PMS_P2;Temp;Humidity;BMP_temperature;BMP_pressure;BME280_temperature;BME280_humidity;BME280_pressure;Samples;Min_cycle;Max_cycle;Signal;HPM_P1;HPM_P2
2021/12/25 00:01:21;;;;;;;20.13;14.35;;;;;;;;;;5095036;28;20191;-67
2021/12/25 00:03:49;;;;;;;20.48;14.52;;;;;;;;;;5094831;28;20292;-68
2021/12/25 00:06:16;;;;;;;18.90;13.93;;;;;;;;;;5094718;28;20620;-68
2021/12/25 00:08:43;;;;;;;18.35;14.50;;;;;;;;;;5094670;28;20237;-67
2021/12/25 00:11:11;;;;;;;20.08;14.48;;;;;;;;;;5094689;28;20196;-67
2021/12/25 00:13:39;;;;;;;14.52;11.35;;;;;;;;;;5094265;28;20318;-67
2021/12/25 00:16:06;;;;;;;20.80;13.65;;;;;;;;;;5094969;28;20617;-68
2021/12/25 00:18:35;;;;;;;16.27;13.25;;;;;;;;;;5094573;28;20222;-67
2021/12/25 00:21:03;;;;;;;22.42;13.95;;;;;;;;;;5094135;28;20285;-67
2021/12/25 00:23:30;;;;;;;15.40;12.50;;;;;;;;;;5094453;28;20189;-67
2021/12/25 00:26:01;;;;;;;21.58;13.25;;;;;;;;;;5094401;28;20610;-67
2021/12/25 00:28:50;;;;;;;18.13;13.32;;;;;;;;;;5094685;28;20187;-67
2021/12/25 00:31:47;;;;;;;17.17;13.95;;;;;;;;;;5094674;28;20246;-67
2021/12/25 00:34:16;;;;;;;15.77;12.10;;;;;;;;;;5094252;28;20217;-67
2021/12/25 00:36:43;;;;;;;23.40;13.38;;;;;;;;;;5094214;28;20291;-67
2021/12/25 00:39:10;;;;;;;16.08;12.73;;;;;;;;;;5094202;28;20282;-66
2021/12/25 00:41:38;;;;;;;14.30;11.45;;;;;;;;;;5093804;28;20286;-67
2021/12/25 00:44:05;;;;;;;18.05;11.65;;;;;;;;;;5093957;28;20302;-66
2021/12/25 00:46:32;;;;;;;16.83;12.00;;;;;;;;;;5093503;28;20235;-67
2021/12/25 00:49:00;;;;;;;13.75;11.60;;;;;;;;;;5094232;28;20229;-67
2021/12/25 00:51:28;;;;;;;15.77;11.73;;;;;;;;;;5094712;28;20292;-67
2021/12/25 00:53:55;;;;;;;11.77;10.23;;;;;;;;;;5094592;28;20305;-67
2021/12/25 00:56:23;;;;;;;12.73;11.40;;;;;;;;;;5093627;28;20287;-67
2021/12/25 00:58:50;;;;;;;13.90;10.70;;;;;;;;;;5093534;28;20280;-67
2021/12/25 01:01:17;;;;;;;13.63;11.15;;;;;;;;;;5093763;28;20551;-67
2021/12/25 01:03:44;;;;;;;11.00;9.80;;;;;;;;;;5093729;28;20635;-67
2021/12/25 01:06:12;;;;;;;16.38;11.20;;;;;;;;;;5093896;28;20582;-67
2021/12/25 01:08:40;;;;;;;17.92;9.65;;;;;;;;;;5093867;28;20560;-67
2021/12/25 01:11:08;;;;;;;11.55;9.45;;;;;;;;;;5093648;28;20231;-67
2021/12/25 01:13:39;;;;;;;12.35;9.52;;;;;;;;;;5093605;28;20280;-67
2021/12/25 01:16:22;;;;;;;10.35;8.15;;;;;;;;;;5093658;28;20229;-67
2021/12/25 01:19:15;;;;;;;9.77;8.68;;;;;;;;;;5093748;28;20252;-67
2021/12/25 01:22:07;;;;;;;9.35;8.32;;;;;;;;;;5093505;28;20660;-68
2021/12/25 01:25:00;;;;;;;9.25;8.25;;;;;;;;;;5093776;28;20198;-67
2021/12/25 01:30:17;;;;;;;11.95;8.90;;;;;;;;;;5093363;28;20219;-67
2021/12/25 01:33:24;;;;;;;7.88;7.07;;;;;;;;;;5093569;28;20182;-67
2021/12/25 01:38:58;;;;;;;8.40;6.45;;;;;;;;;;5031026;28;20196;-67
2021/12/25 01:41:56;;;;;;;7.88;7.00;;;;;;;;;;5083377;28;20202;-67
2021/12/25 01:50:02;;;;;;;8.00;6.90;;;;;;;;;;5093292;28;20186;-67
2021/12/25 01:52:30;;;;;;;7.63;6.93;;;;;;;;;;5093792;28;20187;-67
2021/12/25 01:55:00;;;;;;;8.00;7.20;;;;;;;;;;5093774;28;20288;-67
2021/12/25 01:57:29;;;;;;;7.13;6.30;;;;;;;;;;5094257;28;20199;-64
2021/12/25 01:59:57;;;;;;;9.18;7.55;;;;;;;;;;5097381;28;20200;-68
2021/12/25 02:02:24;;;;;;;8.82;7.68;;;;;;;;;;5097334;28;20198;-68
2021/12/25 02:04:51;;;;;;;13.50;10.63;;;;;;;;;;5097267;28;20203;-67
2021/12/25 02:07:19;;;;;;;9.27;7.65;;;;;;;;;;5097410;28;20232;-67
2021/12/25 02:09:46;;;;;;;7.70;6.93;;;;;;;;;;5096873;28;20254;-67
2021/12/25 02:12:14;;;;;;;9.38;7.75;;;;;;;;;;5097383;28;20281;-67
2021/12/25 02:14:46;;;;;;;8.90;6.78;;;;;;;;;;5097389;28;20245;-66
2021/12/25 02:17:19;;;;;;;9.35;7.15;;;;;;;;;;5096934;28;20225;-67
2021/12/25 02:19:53;;;;;;;9.05;7.70;;;;;;;;;;5097642;28;20217;-67
2021/12/25 02:22:24;;;;;;;10.88;7.75;;;;;;;;;;5097020;28;20191;-67
2021/12/25 02:24:52;;;;;;;9.73;7.63;;;;;;;;;;5096980;28;20243;-67
2021/12/25 02:27:19;;;;;;;9.75;7.38;;;;;;;;;;5096556;28;20281;-67
2021/12/25 02:29:46;;;;;;;9.00;7.65;;;;;;;;;;5096505;28;20202;-67
2021/12/25 02:32:13;;;;;;;8.43;7.05;;;;;;;;;;5096448;28;20225;-67
2021/12/25 02:34:41;;;;;;;9.35;7.80;;;;;;;;;;5096683;28;20408;-67
2021/12/25 02:37:09;;;;;;;10.15;8.90;;;;;;;;;;5096328;28;20288;-67
2021/12/25 02:39:37;;;;;;;9.95;8.45;;;;;;;;;;5096372;28;20236;-67
2021/12/25 02:42:04;;;;;;;9.95;7.20;;;;;;;;;;5096554;28;20282;-67
2021/12/25 02:44:32;;;;;;;7.90;7.10;;;;;;;;;;5096235;28;20216;-67
2021/12/25 02:47:08;;;;;;;10.02;8.45;;;;;;;;;;5096174;28;20194;-67
2021/12/25 02:49:36;;;;;;;8.57;7.78;;;;;;;;;;5096261;28;20656;-67
2021/12/25 02:52:03;;;;;;;9.30;7.35;;;;;;;;;;5096354;28;20559;-67
2021/12/25 02:54:32;;;;;;;8.82;7.75;;;;;;;;;;5095980;28;20217;-67
2021/12/25 02:56:59;;;;;;;7.45;6.60;;;;;;;;;;5095999;28;20289;-68
2021/12/25 02:59:26;;;;;;;8.35;6.53;;;;;;;;;;5095976;28;20195;-67
2021/12/25 03:01:53;;;;;;;11.57;7.47;;;;;;;;;;5096290;28;20288;-67
2021/12/25 03:04:21;;;;;;;6.57;6.00;;;;;;;;;;5095850;28;20254;-67
2021/12/25 03:06:48;;;;;;;8.55;7.65;;;;;;;;;;5096104;28;20364;-67
2021/12/25 03:09:15;;;;;;;9.65;7.20;;;;;;;;;;5095030;28;20280;-67
2021/12/25 03:11:44;;;;;;;7.72;6.55;;;;;;;;;;5095706;28;20198;-67
2021/12/25 03:14:24;;;;;;;7.78;6.50;;;;;;;;;;5096241;28;20542;-67
2021/12/25 03:16:51;;;;;;;8.80;7.00;;;;;;;;;;5095852;28;20271;-67
2021/12/25 03:19:27;;;;;;;8.60;6.18;;;;;;;;;;5096254;28;20628;-68
2021/12/25 03:21:57;;;;;;;9.23;6.88;;;;;;;;;;5096220;28;20177;-67
2021/12/25 03:24:24;;;;;;;4.90;4.43;;;;;;;;;;5095820;28;20227;-67
2021/12/25 03:26:55;;;;;;;5.18;4.63;;;;;;;;;;5095432;28;20289;-67
2021/12/25 03:29:22;;;;;;;9.98;6.43;;;;;;;;;;5095684;28;20723;-67
2021/12/25 03:31:50;;;;;;;8.90;6.22;;;;;;;;;;5095561;28;20756;-67
2021/12/25 03:34:18;;;;;;;9.88;5.25;;;;;;;;;;5095914;28;20194;-67
2021/12/25 03:36:45;;;;;;;6.95;5.30;;;;;;;;;;5095213;28;20280;-68
2021/12/25 03:39:13;;;;;;;8.25;5.70;;;;;;;;;;5095491;28;20625;-67
2021/12/25 03:41:40;;;;;;;7.47;4.85;;;;;;;;;;5095834;28;20247;-67
2021/12/25 03:44:09;;;;;;;5.65;4.65;;;;;;;;;;5095558;28;20309;-67
2021/12/25 03:46:38;;;;;;;5.90;5.07;;;;;;;;;;5095533;28;20648;-67
2021/12/25 03:49:12;;;;;;;7.72;5.43;;;;;;;;;;5094954;28;20190;-67
2021/12/25 04:00:04;;;;;;;5.10;4.60;;;;;;;;;;5095006;28;20606;-67
2021/12/25 04:02:36;;;;;;;4.75;4.15;;;;;;;;;;5095291;28;20287;-67
2021/12/25 04:05:05;;;;;;;5.53;5.00;;;;;;;;;;5095204;28;20194;-68
2021/12/25 04:07:56;;;;;;;5.00;4.35;;;;;;;;;;5094626;28;20731;-67
2021/12/25 04:10:23;;;;;;;7.72;4.35;;;;;;;;;;5094876;28;20253;-67
2021/12/25 04:12:51;;;;;;;5.00;4.53;;;;;;;;;;5094586;28;20255;-67
2021/12/25 04:15:19;;;;;;;4.72;4.05;;;;;;;;;;5095107;28;20300;-67
2021/12/25 04:17:47;;;;;;;6.80;4.22;;;;;;;;;;5094987;28;20605;-67
2021/12/25 04:20:14;;;;;;;4.38;4.10;;;;;;;;;;5094504;28;20237;-67
2021/12/25 04:22:46;;;;;;;5.70;4.00;;;;;;;;;;5094686;28;20198;-67
2021/12/25 04:25:18;;;;;;;4.57;4.18;;;;;;;;;;5094355;28;20192;-68
2021/12/25 04:27:45;;;;;;;7.68;3.85;;;;;;;;;;5094306;28;20185;-67
2021/12/25 04:30:31;;;;;;;5.53;4.47;;;;;;;;;;5094626;28;20232;-67
2021/12/25 05:03:47;;;;;;;4.10;3.80;;;;;;;;;;5093840;28;20172;-67
2021/12/25 05:06:16;;;;;;;4.00;3.70;;;;;;;;;;5094398;28;20596;-67
2021/12/25 05:08:43;;;;;;;4.10;3.80;;;;;;;;;;5093590;28;20229;-67
2021/12/25 05:11:11;;;;;;;4.20;3.65;;;;;;;;;;5093825;28;20284;-66
2021/12/25 05:13:38;;;;;;;14.27;4.80;;;;;;;;;;5093769;28;20197;-66
2021/12/25 05:16:06;;;;;;;5.05;4.25;;;;;;;;;;5093187;28;20249;-66
2021/12/25 05:18:33;;;;;;;5.53;4.40;;;;;;;;;;5093407;28;20581;-67
2021/12/25 05:21:00;;;;;;;5.55;4.55;;;;;;;;;;5093742;28;20229;-66
2021/12/25 05:23:29;;;;;;;5.10;3.78;;;;;;;;;;5093686;28;20233;-66
2021/12/25 05:25:56;;;;;;;4.90;4.50;;;;;;;;;;5093635;28;20193;-66
2021/12/25 05:28:27;;;;;;;4.40;4.10;;;;;;;;;;5093031;28;20280;-66
2021/12/25 05:30:55;;;;;;;5.70;5.10;;;;;;;;;;5093807;28;20540;-66
2021/12/25 05:33:23;;;;;;;5.25;4.68;;;;;;;;;;5092668;28;20239;-66
2021/12/25 05:35:50;;;;;;;5.90;5.30;;;;;;;;;;5093508;28;20735;-66
2021/12/25 05:38:17;;;;;;;6.13;4.20;;;;;;;;;;5093231;28;20735;-66
2021/12/25 05:40:48;;;;;;;5.75;4.45;;;;;;;;;;5093528;28;20280;-66
2021/12/25 05:43:16;;;;;;;6.78;5.40;;;;;;;;;;5093098;28;20186;-66
2021/12/25 05:45:43;;;;;;;5.18;4.78;;;;;;;;;;5093103;28;20198;-66
2021/12/25 05:48:10;;;;;;;4.70;4.00;;;;;;;;;;5093344;28;20251;-67
2021/12/25 05:50:37;;;;;;;6.22;4.80;;;;;;;;;;5093113;28;20284;-66
2021/12/25 05:53:05;;;;;;;5.43;4.60;;;;;;;;;;5094209;28;20285;-66
2021/12/25 05:55:32;;;;;;;6.00;4.53;;;;;;;;;;5093222;28;20304;-66
2021/12/25 05:58:03;;;;;;;5.35;4.00;;;;;;;;;;5093293;28;20276;-66
2021/12/25 06:00:30;;;;;;;6.43;4.45;;;;;;;;;;5093583;28;20178;-66
2021/12/25 06:02:58;;;;;;;4.40;3.78;;;;;;;;;;5093001;28;20285;-66
2021/12/25 06:05:25;;;;;;;6.00;5.40;;;;;;;;;;5093245;28;20668;-66
2021/12/25 06:07:53;;;;;;;5.07;4.57;;;;;;;;;;5093242;28;20225;-66
2021/12/25 06:10:20;;;;;;;4.45;4.05;;;;;;;;;;5092942;28;20203;-66
2021/12/25 06:12:48;;;;;;;8.50;3.58;;;;;;;;;;5093511;28;20229;-67
2021/12/25 06:15:20;;;;;;;3.63;3.33;;;;;;;;;;5093467;28;20217;-66
2021/12/25 06:17:47;;;;;;;8.65;4.07;;;;;;;;;;5092965;28;20225;-66
2021/12/25 06:20:15;;;;;;;3.03;2.60;;;;;;;;;;5092845;28;20229;-67
2021/12/25 06:22:42;;;;;;;9.52;2.72;;;;;;;;;;5093105;28;20276;-66
2021/12/25 06:25:09;;;;;;;2.55;2.30;;;;;;;;;;5092791;28;20284;-66
2021/12/25 06:27:37;;;;;;;6.20;2.80;;;;;;;;;;5093115;28;20190;-66
2021/12/25 06:30:04;;;;;;;3.22;2.63;;;;;;;;;;5093500;28;20232;-66
2021/12/25 06:32:33;;;;;;;3.72;2.70;;;;;;;;;;5093013;28;20270;-66
2021/12/25 06:35:00;;;;;;;3.25;2.95;;;;;;;;;;5093077;28;20621;-66
2021/12/25 06:37:28;;;;;;;4.03;3.13;;;;;;;;;;5092956;28;20190;-66
2021/12/25 06:39:55;;;;;;;3.10;2.67;;;;;;;;;;5093017;28;20193;-66
2021/12/25 06:42:22;;;;;;;3.67;3.15;;;;;;;;;;5092948;28;20205;-66
2021/12/25 06:44:49;;;;;;;2.95;2.22;;;;;;;;;;5093880;28;20285;-66
2021/12/25 06:47:16;;;;;;;2.88;2.45;;;;;;;;;;5096387;28;20288;-65
2021/12/25 06:49:45;;;;;;;2.30;2.10;;;;;;;;;;5096768;28;20277;-66
2021/12/25 06:52:12;;;;;;;4.72;2.05;;;;;;;;;;5096072;28;20288;-66
2021/12/25 06:54:39;;;;;;;1.95;1.85;;;;;;;;;;5096272;28;20233;-66
2021/12/25 06:57:07;;;;;;;2.60;2.40;;;;;;;;;;5095952;28;20267;-66
2021/12/25 06:59:34;;;;;;;3.13;2.25;;;;;;;;;;5096351;28;20379;-66
2021/12/25 07:02:03;;;;;;;4.32;2.17;;;;;;;;;;5095928;28;20643;-66
2021/12/25 07:04:31;;;;;;;2.50;2.05;;;;;;;;;;5096024;28;20250;-66
2021/12/25 07:06:59;;;;;;;1.70;1.60;;;;;;;;;;5096216;28;20194;-66
2021/12/25 07:09:27;;;;;;;1.63;1.52;;;;;;;;;;5095783;28;20229;-67
2021/12/25 07:11:54;;;;;;;3.03;1.60;;;;;;;;;;5095750;28;20236;-67
2021/12/25 07:14:21;;;;;;;2.00;1.70;;;;;;;;;;5095577;28;20258;-67
2021/12/25 07:16:48;;;;;;;3.58;1.80;;;;;;;;;;5095813;28;20323;-66
2021/12/25 07:19:16;;;;;;;2.10;1.90;;;;;;;;;;5095805;28;20249;-66
2021/12/25 07:21:43;;;;;;;3.13;1.73;;;;;;;;;;5095491;28;20205;-66
2021/12/25 07:24:14;;;;;;;1.80;1.70;;;;;;;;;;5095467;28;20224;-66
2021/12/25 07:26:41;;;;;;;2.20;1.50;;;;;;;;;;5096301;28;20189;-66
2021/12/25 07:29:09;;;;;;;4.55;1.90;;;;;;;;;;5095765;28;20288;-67
2021/12/25 07:31:36;;;;;;;1.67;1.58;;;;;;;;;;5095364;28;20284;-67
2021/12/25 07:34:03;;;;;;;3.75;2.03;;;;;;;;;;5095294;28;20232;-67
2021/12/25 07:36:30;;;;;;;3.25;1.50;;;;;;;;;;5095483;28;20303;-66
2021/12/25 07:39:00;;;;;;;2.55;1.60;;;;;;;;;;5095659;28;20284;-67
2021/12/25 07:41:28;;;;;;;2.17;1.90;;;;;;;;;;5095145;28;20205;-66
2021/12/25 07:43:56;;;;;;;7.03;2.45;;;;;;;;;;5095226;28;20288;-66
2021/12/25 07:46:23;;;;;;;3.28;1.52;;;;;;;;;;5095345;28;20241;-65
2021/12/25 07:48:50;;;;;;;3.42;1.27;;;;;;;;;;5095155;28;20228;-65
2021/12/25 07:51:18;;;;;;;2.35;1.50;;;;;;;;;;5095087;28;20197;-65
2021/12/25 07:53:45;;;;;;;1.63;1.50;;;;;;;;;;5094945;28;20598;-65
2021/12/25 07:56:13;;;;;;;1.98;1.80;;;;;;;;;;5094145;28;20304;-65
2021/12/25 07:58:42;;;;;;;3.15;1.30;;;;;;;;;;5095062;28;20193;-66
2021/12/25 08:01:09;;;;;;;1.55;1.45;;;;;;;;;;5094792;28;20194;-66
2021/12/25 08:03:36;;;;;;;1.50;1.40;;;;;;;;;;5095598;28;20554;-65
2021/12/25 08:06:04;;;;;;;2.65;1.60;;;;;;;;;;5095196;28;20716;-66
2021/12/25 08:08:31;;;;;;;1.67;1.58;;;;;;;;;;5094663;28;20197;-66
2021/12/25 08:10:59;;;;;;;2.33;1.50;;;;;;;;;;5094914;28;20660;-66
2021/12/25 08:13:26;;;;;;;2.72;2.00;;;;;;;;;;5094495;28;20284;-66
2021/12/25 08:15:54;;;;;;;1.30;1.20;;;;;;;;;;5094479;28;20256;-66
2021/12/25 08:18:22;;;;;;;2.10;1.75;;;;;;;;;;5094911;28;20236;-67
2021/12/25 08:20:49;;;;;;;1.80;1.70;;;;;;;;;;5094707;28;20277;-67
2021/12/25 08:23:16;;;;;;;3.60;1.50;;;;;;;;;;5094629;28;20229;-67
2021/12/25 08:25:43;;;;;;;7.43;2.65;;;;;;;;;;5094746;28;20288;-66
2021/12/25 08:28:11;;;;;;;1.45;1.35;;;;;;;;;;5094252;28;20284;-66
2021/12/25 08:30:38;;;;;;;1.30;1.20;;;;;;;;;;5094859;28;20193;-67
2021/12/25 08:33:07;;;;;;;1.92;1.70;;;;;;;;;;5094167;28;20284;-67
2021/12/25 08:35:34;;;;;;;1.98;1.70;;;;;;;;;;5094410;28;20288;-67
2021/12/25 08:38:02;;;;;;;4.18;1.73;;;;;;;;;;5093998;28;20882;-67
2021/12/25 08:40:29;;;;;;;1.40;1.10;;;;;;;;;;5094365;28;20288;-68
2021/12/25 08:43:00;;;;;;;2.10;1.17;;;;;;;;;;5094292;28;20283;-68
2021/12/25 08:45:43;;;;;;;1.20;1.10;;;;;;;;;;5094623;28;20205;-68
2021/12/25 08:48:16;;;;;;;1.58;1.42;;;;;;;;;;5093957;28;20588;-68
2021/12/25 08:50:46;;;;;;;1.52;1.42;;;;;;;;;;5094140;28;20280;-67
2021/12/25 08:53:13;;;;;;;3.35;1.50;;;;;;;;;;5094419;28;20284;-68
2021/12/25 08:55:40;;;;;;;1.88;1.50;;;;;;;;;;5094127;28;20277;-68
2021/12/25 08:58:07;;;;;;;1.65;1.55;;;;;;;;;;5093663;28;20309;-68
2021/12/25 09:00:35;;;;;;;1.55;1.45;;;;;;;;;;5093759;28;20285;-68
2021/12/25 09:03:02;;;;;;;1.98;1.60;;;;;;;;;;5093741;28;20193;-67
2021/12/25 09:05:32;;;;;;;1.90;1.80;;;;;;;;;;5093671;28;20232;-68
2021/12/25 09:07:59;;;;;;;1.65;1.33;;;;;;;;;;5092771;28;20240;-68
2021/12/25 09:10:28;;;;;;;1.33;1.23;;;;;;;;;;5093496;28;20280;-68
2021/12/25 09:12:55;;;;;;;2.05;1.50;;;;;;;;;;5093810;28;20547;-68
2021/12/25 09:15:23;;;;;;;2.00;1.45;;;;;;;;;;5094102;28;20223;-69
2021/12/25 09:17:50;;;;;;;1.80;1.50;;;;;;;;;;5093207;28;20315;-67
2021/12/25 09:20:18;;;;;;;2.65;1.58;;;;;;;;;;5093417;28;20695;-68
2021/12/25 09:22:46;;;;;;;1.83;1.60;;;;;;;;;;5093487;28;20242;-68
2021/12/25 09:25:14;;;;;;;1.40;1.30;;;;;;;;;;5093589;28;20236;-68
2021/12/25 09:27:41;;;;;;;2.35;1.30;;;;;;;;;;5093705;28;20280;-68
2021/12/25 09:30:09;;;;;;;1.60;1.50;;;;;;;;;;5093392;28;20282;-68
2021/12/25 09:32:37;;;;;;;2.28;1.50;;;;;;;;;;5093607;28;20243;-68
2021/12/25 09:35:04;;;;;;;2.00;1.80;;;;;;;;;;5093373;28;20197;-68
2021/12/25 09:37:32;;;;;;;2.88;1.65;;;;;;;;;;5093220;28;20232;-67
2021/12/25 09:40:00;;;;;;;3.42;2.03;;;;;;;;;;5093222;28;20648;-68
2021/12/25 09:42:28;;;;;;;1.77;1.67;;;;;;;;;;5093710;28;20190;-68
2021/12/25 09:44:55;;;;;;;2.92;1.40;;;;;;;;;;5093364;28;20193;-68
2021/12/25 09:47:23;;;;;;;1.35;1.25;;;;;;;;;;5093381;28;20285;-67
2021/12/25 09:49:50;;;;;;;1.83;1.73;;;;;;;;;;5093417;28;20233;-68
2021/12/25 09:52:17;;;;;;;1.50;1.40;;;;;;;;;;5093055;28;20239;-68
2021/12/25 09:54:45;;;;;;;1.38;1.38;;;;;;;;;;5093013;28;20284;-65
2021/12/25 09:57:14;;;;;;;3.88;2.65;;;;;;;;;;5092974;28;20308;-68
2021/12/25 09:59:41;;;;;;;2.72;1.40;;;;;;;;;;5093010;28;20678;-67
2021/12/25 10:02:12;;;;;;;1.65;1.55;;;;;;;;;;5092973;28;20289;-67
2021/12/25 10:04:42;;;;;;;1.80;1.67;;;;;;;;;;5093167;28;20699;-68
2021/12/25 10:07:13;;;;;;;1.45;1.35;;;;;;;;;;5093473;28;20618;-67
2021/12/25 10:09:41;;;;;;;2.65;1.92;;;;;;;;;;5092808;28;20233;-67
2021/12/25 10:12:09;;;;;;;1.67;1.50;;;;;;;;;;5093209;28;20284;-67
2021/12/25 10:14:38;;;;;;;1.98;1.60;;;;;;;;;;5093250;28;20202;-67
2021/12/25 10:17:16;;;;;;;1.60;1.50;;;;;;;;;;5092436;28;20221;-67
2021/12/25 10:19:44;;;;;;;2.90;1.75;;;;;;;;;;5096030;28;20197;-68
2021/12/25 10:22:13;;;;;;;1.58;1.48;;;;;;;;;;5097143;28;20225;-68
2021/12/25 10:24:49;;;;;;;1.63;1.50;;;;;;;;;;5097054;28;20280;-67
2021/12/25 10:27:17;;;;;;;1.65;1.55;;;;;;;;;;5097201;28;20636;-68
2021/12/25 10:29:46;;;;;;;2.10;1.60;;;;;;;;;;5096508;28;20284;-68
2021/12/25 10:32:18;;;;;;;1.58;1.48;;;;;;;;;;5096665;28;20201;-68
2021/12/25 10:34:46;;;;;;;3.08;1.85;;;;;;;;;;5096646;28;20193;-68
2021/12/25 10:37:14;;;;;;;2.80;2.10;;;;;;;;;;5096154;28;20763;-67
2021/12/25 10:39:42;;;;;;;1.73;1.60;;;;;;;;;;5096660;28;20280;-69
2021/12/25 10:42:12;;;;;;;2.90;1.50;;;;;;;;;;5096282;28;20228;-68
2021/12/25 10:44:41;;;;;;;1.80;1.70;;;;;;;;;;5096898;28;20280;-68
2021/12/25 10:47:10;;;;;;;1.10;1.10;;;;;;;;;;5096059;28;20289;-68
2021/12/25 10:49:39;;;;;;;3.50;3.28;;;;;;;;;;5096073;28;20255;-69
2021/12/25 10:52:14;;;;;;;2.55;1.83;;;;;;;;;;5096644;28;20197;-68
2021/12/25 10:54:43;;;;;;;1.88;1.20;;;;;;;;;;5096467;28;20197;-69
2021/12/25 10:57:10;;;;;;;1.80;1.55;;;;;;;;;;5096775;28;20209;-68
2021/12/25 10:59:45;;;;;;;1.92;1.73;;;;;;;;;;5096249;28;20280;-68
2021/12/25 11:02:28;;;;;;;1.95;1.52;;;;;;;;;;5096244;28;20276;-68
2021/12/25 11:04:55;;;;;;;1.38;1.27;;;;;;;;;;5096457;28;20182;-69
2021/12/25 11:07:22;;;;;;;1.70;1.45;;;;;;;;;;5095790;28;20197;-68
2021/12/25 11:10:02;;;;;;;2.17;1.98;;;;;;;;;;5095680;28;20225;-68
2021/12/25 11:12:31;;;;;;;3.33;2.33;;;;;;;;;;5096387;28;20265;-68
2021/12/25 11:15:09;;;;;;;2.10;1.90;;;;;;;;;;5096119;28;20244;-72
2021/12/25 11:17:40;;;;;;;3.65;1.50;;;;;;;;;;5095555;28;20251;-69
2021/12/25 11:20:16;;;;;;;1.85;1.60;;;;;;;;;;5095610;28;20186;-68
2021/12/25 11:22:48;;;;;;;2.58;2.30;;;;;;;;;;5096591;28;20243;-68
2021/12/25 11:25:16;;;;;;;1.67;1.58;;;;;;;;;;5096288;28;20280;-72
2021/12/25 11:27:43;;;;;;;2.25;1.58;;;;;;;;;;5095382;28;20284;-71
2021/12/25 11:30:11;;;;;;;1.40;1.30;;;;;;;;;;5095269;28;20190;-69
2021/12/25 11:32:40;;;;;;;1.65;1.50;;;;;;;;;;5095324;28;20251;-70
2021/12/25 11:35:08;;;;;;;1.50;1.40;;;;;;;;;;5096110;28;20280;-69
2021/12/25 11:37:36;;;;;;;1.10;1.10;;;;;;;;;;5095091;28;20250;-70
2021/12/25 11:40:04;;;;;;;1.40;1.30;;;;;;;;;;5095488;28;20229;-69
2021/12/25 11:42:32;;;;;;;2.08;1.30;;;;;;;;;;5095301;28;20235;-69
2021/12/25 11:45:11;;;;;;;1.70;1.60;;;;;;;;;;5095650;28;20194;-69
2021/12/25 11:47:41;;;;;;;1.80;1.70;;;;;;;;;;5095819;28;20293;-68
2021/12/25 11:50:09;;;;;;;1.20;1.10;;;;;;;;;;5095630;28;20603;-69
2021/12/25 11:52:42;;;;;;;1.52;1.27;;;;;;;;;;5094922;28;20236;-68
2021/12/25 11:55:25;;;;;;;1.98;1.77;;;;;;;;;;5095230;28;20193;-68
2021/12/25 11:58:01;;;;;;;1.50;1.40;;;;;;;;;;5095222;28;20248;-69
2021/12/25 12:00:35;;;;;;;1.60;1.35;;;;;;;;;;5095286;28;20182;-68
2021/12/25 12:03:04;;;;;;;1.70;1.60;;;;;;;;;;5094693;28;20283;-68
2021/12/25 12:05:33;;;;;;;1.98;1.88;;;;;;;;;;5095382;28;20616;-68
2021/12/25 12:08:04;;;;;;;1.50;1.40;;;;;;;;;;5095513;28;20620;-69
2021/12/25 12:10:51;;;;;;;1.88;1.77;;;;;;;;;;5094632;28;20185;-68
2021/12/25 12:13:21;;;;;;;3.55;1.83;;;;;;;;;;5088341;28;20657;-69
2021/12/25 12:15:49;;;;;;;1.85;1.75;;;;;;;;;;5094278;28;20225;-68
2021/12/25 12:18:37;;;;;;;1.75;1.65;;;;;;;;;;5094386;28;20292;-68
2021/12/25 12:21:08;;;;;;;2.38;1.77;;;;;;;;;;5094461;28;20749;-68
2021/12/25 12:23:45;;;;;;;1.20;1.10;;;;;;;;;;5094499;28;20227;-68
2021/12/25 12:26:13;;;;;;;1.80;1.70;;;;;;;;;;5094945;28;20177;-68
2021/12/25 12:28:48;;;;;;;1.48;1.38;;;;;;;;;;5094463;28;20193;-68
2021/12/25 12:31:35;;;;;;;1.70;1.48;;;;;;;;;;5094850;28;20626;-69
2021/12/25 12:34:04;;;;;;;2.55;1.40;;;;;;;;;;5095089;28;20276;-68
2021/12/25 12:36:31;;;;;;;1.83;1.73;;;;;;;;;;5095056;28;20280;-68
2021/12/25 12:39:15;;;;;;;8.95;1.95;;;;;;;;;;5094281;28;20209;-68
2021/12/25 12:41:51;;;;;;;2.30;1.55;;;;;;;;;;5094357;28;20229;-68
2021/12/25 12:44:26;;;;;;;1.67;1.38;;;;;;;;;;5094445;28;20687;-68
2021/12/25 12:47:07;;;;;;;2.05;1.50;;;;;;;;;;5094530;28;20350;-68
2021/12/25 12:49:54;;;;;;;1.55;1.33;;;;;;;;;;5093533;28;20266;-69
2021/12/25 12:52:23;;;;;;;1.40;1.30;;;;;;;;;;5094522;28;20268;-68
2021/12/25 12:54:51;;;;;;;3.75;1.80;;;;;;;;;;5093654;28;20233;-68
2021/12/25 12:57:24;;;;;;;2.65;2.15;;;;;;;;;;5094302;28;20198;-68
2021/12/25 12:59:53;;;;;;;2.95;1.58;;;;;;;;;;5094457;28;20181;-71
2021/12/25 13:02:21;;;;;;;5.00;1.52;;;;;;;;;;5093504;28;20229;-69
2021/12/25 13:04:50;;;;;;;1.65;1.40;;;;;;;;;;5093982;28;20197;-68
2021/12/25 13:07:19;;;;;;;2.00;1.60;;;;;;;;;;5093845;28;20288;-69
2021/12/25 13:09:52;;;;;;;2.35;1.60;;;;;;;;;;5093760;28;20193;-68
2021/12/25 13:12:35;;;;;;;2.17;1.98;;;;;;;;;;5094128;28;20182;-68
2021/12/25 13:15:02;;;;;;;3.95;1.77;;;;;;;;;;5094087;28;20348;-69
2021/12/25 13:17:30;;;;;;;5.05;1.90;;;;;;;;;;5093215;28;20226;-69
2021/12/25 13:19:58;;;;;;;6.18;1.77;;;;;;;;;;5093212;28;20715;-69
2021/12/25 13:22:26;;;;;;;1.83;1.73;;;;;;;;;;5093811;28;20285;-69
2021/12/25 13:24:56;;;;;;;2.40;2.15;;;;;;;;;;5093555;28;20289;-68
2021/12/25 13:27:23;;;;;;;2.03;1.85;;;;;;;;;;5093761;28;20611;-69
2021/12/25 13:29:52;;;;;;;1.92;1.80;;;;;;;;;;5093602;28;20193;-69
2021/12/25 13:32:26;;;;;;;2.30;2.10;;;;;;;;;;5093853;28;20227;-69
2021/12/25 13:34:54;;;;;;;3.72;2.10;;;;;;;;;;5093074;28;20240;-69
2021/12/25 13:37:27;;;;;;;2.35;1.65;;;;;;;;;;5093328;28;20201;-69
2021/12/25 13:39:55;;;;;;;2.70;1.95;;;;;;;;;;5092977;28;20222;-68
2021/12/25 13:42:22;;;;;;;2.58;2.38;;;;;;;;;;5093415;28;20194;-68
2021/12/25 13:44:50;;;;;;;2.30;1.80;;;;;;;;;;5093578;28;20615;-68
2021/12/25 13:47:21;;;;;;;2.50;1.83;;;;;;;;;;5093931;28;20197;-68
2021/12/25 13:49:50;;;;;;;2.00;1.90;;;;;;;;;;5092986;28;20193;-69
2021/12/25 13:52:23;;;;;;;3.90;1.80;;;;;;;;;;5093782;28;20193;-69
2021/12/25 13:55:00;;;;;;;1.63;1.50;;;;;;;;;;5095952;28;20272;-70
2021/12/25 13:57:28;;;;;;;1.95;1.73;;;;;;;;;;5097341;28;20217;-69
2021/12/25 13:59:56;;;;;;;2.05;1.95;;;;;;;;;;5097067;28;20280;-69
2021/12/25 14:02:24;;;;;;;2.05;1.85;;;;;;;;;;5097457;28;20246;-68
2021/12/25 14:04:52;;;;;;;2.65;2.20;;;;;;;;;;5096955;28;20229;-69
2021/12/25 14:07:20;;;;;;;4.85;2.17;;;;;;;;;;5097258;28;20233;-69
2021/12/25 14:09:55;;;;;;;2.05;1.85;;;;;;;;;;5097227;28;20659;-69
2021/12/25 14:12:22;;;;;;;4.10;1.95;;;;;;;;;;5097955;28;20256;-68
2021/12/25 14:14:50;;;;;;;3.00;1.70;;;;;;;;;;5096750;28;20280;-69
2021/12/25 14:17:17;;;;;;;3.40;1.60;;;;;;;;;;5097305;28;20315;-68
2021/12/25 14:19:45;;;;;;;2.45;2.25;;;;;;;;;;5096842;28;20312;-68
2021/12/25 14:22:12;;;;;;;4.88;3.47;;;;;;;;;;5097336;28;20280;-68
2021/12/25 14:24:43;;;;;;;2.30;2.10;;;;;;;;;;5097133;28;20589;-68
2021/12/25 14:27:13;;;;;;;2.35;1.75;;;;;;;;;;5096663;28;20280;-68
2021/12/25 14:29:40;;;;;;;5.85;2.10;;;;;;;;;;5096828;28;20185;-68
2021/12/25 14:32:18;;;;;;;2.20;2.00;;;;;;;;;;5096833;28;20194;-68
2021/12/25 14:34:45;;;;;;;2.13;1.80;;;;;;;;;;5096495;28;20194;-68
2021/12/25 14:37:13;;;;;;;1.77;1.67;;;;;;;;;;5097228;28;20540;-68
2021/12/25 14:39:40;;;;;;;1.80;1.70;;;;;;;;;;5096683;28;20304;-69
2021/12/25 14:42:07;;;;;;;2.47;1.80;;;;;;;;;;5096668;28;20618;-68
2021/12/25 14:44:37;;;;;;;1.92;1.67;;;;;;;;;;5096969;28;20284;-68
2021/12/25 14:47:08;;;;;;;6.47;2.85;;;;;;;;;;5096868;28;20189;-68
2021/12/25 14:49:37;;;;;;;1.60;1.50;;;;;;;;;;5096026;28;20288;-68
2021/12/25 14:52:05;;;;;;;2.03;1.60;;;;;;;;;;5096466;28;20197;-68
2021/12/25 14:54:32;;;;;;;2.15;1.90;;;;;;;;;;5096560;28;20193;-68
2021/12/25 14:57:00;;;;;;;2.30;1.75;;;;;;;;;;5096302;28;20284;-68
2021/12/25 14:59:29;;;;;;;3.22;1.90;;;;;;;;;;5095846;28;20248;-68
2021/12/25 15:02:00;;;;;;;5.15;2.30;;;;;;;;;;5096626;28;20607;-68
2021/12/25 15:04:29;;;;;;;1.85;1.75;;;;;;;;;;5095560;28;20235;-73
2021/12/25 15:06:57;;;;;;;2.65;2.30;;;;;;;;;;5095181;28;20254;-68
2021/12/25 15:09:26;;;;;;;3.67;2.58;;;;;;;;;;5096064;28;20198;-68
2021/12/25 15:11:54;;;;;;;2.10;1.63;;;;;;;;;;5095680;28;20712;-68
2021/12/25 15:14:31;;;;;;;1.80;1.70;;;;;;;;;;5095914;28;20640;-68
2021/12/25 15:17:01;;;;;;;1.90;1.80;;;;;;;;;;5096062;28;20221;-68
2021/12/25 15:19:30;;;;;;;1.67;1.58;;;;;;;;;;5095444;28;20304;-68
2021/12/25 15:21:58;;;;;;;4.07;2.17;;;;;;;;;;5095948;28;20284;-67
2021/12/25 15:24:31;;;;;;;2.20;1.60;;;;;;;;;;5095689;28;20660;-68
2021/12/25 15:26:59;;;;;;;2.00;1.80;;;;;;;;;;5095481;28;20269;-68
2021/12/25 15:29:37;;;;;;;3.00;2.00;;;;;;;;;;5095332;28;20200;-68
2021/12/25 15:32:06;;;;;;;2.42;1.90;;;;;;;;;;5096463;28;20208;-68
2021/12/25 15:34:34;;;;;;;2.40;1.70;;;;;;;;;;5095625;28;20288;-68
2021/12/25 15:37:01;;;;;;;1.80;1.70;;;;;;;;;;5096270;28;20296;-67
2021/12/25 15:39:32;;;;;;;2.50;2.30;;;;;;;;;;5095395;28;20308;-69
2021/12/25 15:42:01;;;;;;;1.70;1.60;;;;;;;;;;5095917;28;20185;-68
2021/12/25 15:44:29;;;;;;;5.03;2.15;;;;;;;;;;5095304;28;20196;-68
2021/12/25 15:46:57;;;;;;;2.00;1.90;;;;;;;;;;5095370;28;20243;-68